Time;durP1;ratioP1;P1;durP2;ratioP2;P2;SDS_P1;SDS_P2;PMS_P1;PMS_P2;Temp;Humidity;BMP_temperature;BMP_pressure;BME280_temperature;BME280_humidity;BME280_pressure;Samples;Min_cycle;Max_cycle;Signal;HPM_P1;HPM_P2
2022/07/16 00:01:26;;;;;;;3.17;2.47;;;15.90;99.90;;;;;;5025701;28;20206;-74
2022/07/16 00:03:56;;;;;;;3.50;2.40;;;15.90;99.90;;;;;;5028025;28;20274;-74
2022/07/16 00:06:22;;;;;;;3.63;2.40;;;16.00;99.90;;;;;;5025105;28;20233;-74
2022/07/16 00:08:48;;;;;;;4.03;2.40;;;15.90;99.90;;;;;;5027546;28;20186;-73
2022/07/16 00:11:14;;;;;;;5.27;3.20;;;16.00;99.90;;;;;;5025552;28;20204;-74
2022/07/16 00:13:40;;;;;;;5.27;2.70;;;16.00;99.90;;;;;;5027182;28;20683;-74
2022/07/16 00:16:07;;;;;;;4.10;2.53;;;15.90;99.90;;;;;;5025240;28;20468;-74
2022/07/16 00:21:17;;;;;;;4.87;2.80;;;15.90;99.90;;;;;;5025389;28;20250;-74
2022/07/16 00:23:42;;;;;;;3.97;2.77;;;15.90;99.90;;;;;;5026662;28;20784;-74
2022/07/16 00:26:08;;;;;;;3.63;2.57;;;15.80;99.90;;;;;;5005853;28;20200;-74
2022/07/16 00:28:33;;;;;;;4.87;3.10;;;15.90;99.90;;;;;;5026530;28;20184;-74
2022/07/16 00:30:59;;;;;;;6.23;3.87;;;15.90;99.90;;;;;;5024393;28;20246;-75
2022/07/16 00:33:24;;;;;;;4.93;3.00;;;15.90;99.90;;;;;;5026591;28;20257;-74
2022/07/16 00:35:50;;;;;;;9.33;6.33;;;16.00;99.90;;;;;;5024688;28;20569;-74
2022/07/16 00:38:15;;;;;;;4.23;2.87;;;15.90;99.90;;;;;;5026319;28;20217;-74
2022/07/16 00:40:41;;;;;;;3.47;2.63;;;15.90;99.90;;;;;;5006790;28;20203;-73
2022/07/16 00:43:11;;;;;;;5.00;2.83;;;15.90;99.90;;;;;;5026613;28;20267;-73
2022/07/16 00:45:38;;;;;;;7.87;5.23;;;15.90;99.90;;;;;;5024926;28;20203;-73
2022/07/16 00:48:04;;;;;;;3.57;2.50;;;15.90;99.90;;;;;;5008592;28;20191;-73
2022/07/16 00:50:29;;;;;;;4.17;2.77;;;15.80;99.90;;;;;;5024732;28;20212;-74
2022/07/16 00:52:55;;;;;;;3.23;2.60;;;15.80;99.90;;;;;;5026532;28;20195;-74
2022/07/16 00:55:21;;;;;;;4.77;2.63;;;15.70;99.90;;;;;;5024416;28;20241;-73
2022/07/16 00:57:46;;;;;;;4.13;2.53;;;15.80;99.90;;;;;;5026754;28;20208;-74
2022/07/16 01:00:12;;;;;;;9.70;5.20;;;15.60;99.90;;;;;;5024502;28;20806;-73
2022/07/16 01:02:38;;;;;;;5.00;2.70;;;15.70;99.90;;;;;;5026407;28;20183;-73
2022/07/16 01:05:03;;;;;;;10.17;7.20;;;15.80;99.90;;;;;;5024449;28;20192;-73
2022/07/16 01:07:29;;;;;;;6.97;2.80;;;15.70;99.90;;;;;;5025641;28;20766;-73
2022/07/16 01:09:57;;;;;;;5.47;2.73;;;15.70;99.90;;;;;;5024587;28;20204;-72
2022/07/16 01:12:24;;;;;;;2.73;2.23;;;15.80;99.90;;;;;;5025589;28;20294;-72
2022/07/16 01:14:50;;;;;;;3.87;2.93;;;15.80;99.90;;;;;;5025508;28;20192;-73
2022/07/16 01:17:15;;;;;;;5.93;2.43;;;15.70;99.90;;;;;;5023648;28;20276;-72
2022/07/16 01:19:41;;;;;;;3.17;2.47;;;15.70;99.90;;;;;;5025667;28;20192;-72
2022/07/16 01:22:06;;;;;;;5.80;2.70;;;15.80;99.90;;;;;;5024011;28;20199;-72
2022/07/16 01:24:32;;;;;;;3.43;2.43;;;15.60;99.90;;;;;;5025584;28;20192;-73
2022/07/16 01:26:57;;;;;;;3.17;2.30;;;15.50;99.90;;;;;;5023690;28;20746;-70
2022/07/16 01:29:23;;;;;;;4.50;3.00;;;15.40;99.90;;;;;;5025354;28;20202;-72
2022/07/16 01:31:48;;;;;;;5.43;2.77;;;15.50;99.90;;;;;;5023430;28;20200;-72
2022/07/16 01:34:25;;;;;;;5.50;2.97;;;15.50;99.90;;;;;;5025798;28;20546;-77
2022/07/16 01:36:59;;;;;;;6.60;3.10;;;15.60;99.90;;;;;;5020382;28;20195;-77
2022/07/16 01:39:25;;;;;;;6.97;3.40;;;15.60;99.90;;;;;;5016640;28;20274;-72
2022/07/16 01:41:56;;;;;;;4.73;2.97;;;15.60;99.90;;;;;;5023445;28;20196;-73
2022/07/16 01:44:24;;;;;;;4.23;2.77;;;15.60;99.90;;;;;;5027452;28;20258;-75
2022/07/16 01:46:53;;;;;;;4.63;2.90;;;15.60;99.90;;;;;;5033877;28;20317;-76
2022/07/16 01:49:20;;;;;;;5.37;3.03;;;15.60;99.90;;;;;;5036986;28;20216;-75
2022/07/16 01:51:45;;;;;;;4.47;3.00;;;15.50;99.90;;;;;;5023577;28;20670;-74
2022/07/16 01:54:11;;;;;;;2.57;2.13;;;15.60;99.90;;;;;;5025107;28;20187;-74
2022/07/16 01:56:37;;;;;;;3.53;2.40;;;15.60;99.90;;;;;;5011225;28;20666;-74
2022/07/16 01:59:02;;;;;;;2.83;2.00;;;15.50;99.90;;;;;;5024513;28;20207;-75
2022/07/16 02:01:28;;;;;;;3.37;2.53;;;15.60;99.90;;;;;;5023198;28;20204;-75
2022/07/16 02:03:53;;;;;;;5.10;2.63;;;15.60;99.90;;;;;;5025044;28;20234;-75
2022/07/16 02:06:19;;;;;;;3.07;1.93;;;15.50;99.90;;;;;;5023406;28;20211;-75
2022/07/16 02:08:45;;;;;;;3.80;2.60;;;15.60;99.90;;;;;;5025518;28;20187;-74
2022/07/16 02:11:10;;;;;;;2.87;2.13;;;15.70;99.90;;;;;;5023533;28;20500;-74
2022/07/16 02:13:35;;;;;;;3.60;2.50;;;15.70;99.90;;;;;;5024946;28;20257;-74
2022/07/16 02:16:01;;;;;;;4.47;2.77;;;15.70;99.90;;;;;;5022755;28;20208;-72
2022/07/16 02:18:26;;;;;;;4.77;2.17;;;15.80;99.90;;;;;;5025137;28;20265;-73
2022/07/16 02:20:52;;;;;;;5.10;2.83;;;15.70;99.90;;;;;;5023021;28;21101;-73
2022/07/16 02:23:18;;;;;;;4.33;2.97;;;15.70;99.90;;;;;;5026996;28;20292;-73
2022/07/16 02:25:43;;;;;;;3.07;2.30;;;15.70;99.90;;;;;;5027155;28;20283;-73
2022/07/16 02:28:09;;;;;;;4.67;2.40;;;15.70;99.90;;;;;;5029201;28;20279;-73
2022/07/16 02:30:44;;;;;;;1.97;1.77;;;15.60;99.90;;;;;;5027005;28;20581;-73
2022/07/16 02:33:11;;;;;;;3.40;2.17;;;15.70;99.90;;;;;;5025849;28;20289;-73
2022/07/16 02:35:37;;;;;;;4.10;2.87;;;15.70;99.90;;;;;;5026864;28;20214;-73
2022/07/16 02:38:05;;;;;;;3.17;2.53;;;15.60;99.90;;;;;;5010833;28;20215;-74
2022/07/16 02:40:33;;;;;;;7.03;5.87;;;15.60;99.90;;;;;;5026950;28;20204;-74
2022/07/16 02:42:59;;;;;;;3.77;2.80;;;15.60;99.90;;;;;;5011459;28;20191;-73
2022/07/16 02:45:25;;;;;;;7.73;6.33;;;15.60;99.90;;;;;;5026576;28;20871;-73
2022/07/16 02:47:51;;;;;;;3.23;2.23;;;15.60;99.90;;;;;;5029233;28;20226;-73
2022/07/16 02:50:16;;;;;;;5.13;2.43;;;15.60;99.90;;;;;;5026712;28;20219;-73
2022/07/16 02:52:41;;;;;;;3.10;2.47;;;15.60;99.90;;;;;;5028771;28;20341;-73
2022/07/16 02:55:07;;;;;;;2.83;2.23;;;15.70;99.90;;;;;;5028521;28;20207;-74
2022/07/16 02:57:33;;;;;;;4.23;3.07;;;15.70;99.90;;;;;;5008142;28;20212;-73
2022/07/16 02:59:59;;;;;;;2.70;2.27;;;15.60;99.90;;;;;;5028164;28;20531;-74
2022/07/16 03:02:24;;;;;;;3.53;2.63;;;15.60;99.90;;;;;;5026879;28;20200;-74
2022/07/16 03:04:50;;;;;;;4.50;2.77;;;15.60;99.90;;;;;;5028313;28;20271;-74
2022/07/16 03:07:16;;;;;;;4.53;2.70;;;15.60;99.90;;;;;;5008596;28;20243;-73
2022/07/16 03:09:41;;;;;;;2.33;2.10;;;15.60;99.90;;;;;;5028496;28;20195;-74
2022/07/16 03:12:07;;;;;;;3.13;2.37;;;15.60;99.90;;;;;;5026774;28;20542;-73
2022/07/16 03:14:32;;;;;;;4.23;2.73;;;15.60;99.90;;;;;;5028427;28;20195;-74
2022/07/16 03:16:58;;;;;;;3.27;2.00;;;15.60;99.90;;;;;;5026188;28;20223;-74
2022/07/16 03:19:23;;;;;;;4.20;2.53;;;15.60;99.90;;;;;;5028207;28;20310;-73
2022/07/16 03:21:49;;;;;;;3.73;2.40;;;15.70;99.90;;;;;;5026553;28;20543;-76
2022/07/16 03:24:14;;;;;;;5.97;2.97;;;15.70;99.90;;;;;;5028188;28;20184;-74
2022/07/16 03:26:40;;;;;;;4.87;3.10;;;15.80;99.90;;;;;;5026231;28;20286;-73
2022/07/16 03:29:05;;;;;;;4.73;2.40;;;15.80;99.90;;;;;;5035310;28;20546;-72
2022/07/16 03:31:30;;;;;;;4.97;3.03;;;15.80;99.90;;;;;;5026256;28;20269;-70
2022/07/16 03:33:56;;;;;;;8.33;6.17;;;15.80;99.90;;;;;;5027340;28;20235;-71
2022/07/16 03:36:22;;;;;;;3.33;2.60;;;15.80;99.90;;;;;;5025881;28;20195;-70
2022/07/16 03:38:59;;;;;;;4.40;3.07;;;15.70;99.90;;;;;;5027164;28;20273;-70
2022/07/16 03:41:25;;;;;;;5.27;2.57;;;15.70;99.90;;;;;;5023036;28;20187;-70
2022/07/16 03:43:50;;;;;;;4.13;2.80;;;15.60;99.90;;;;;;5027513;28;20198;-70
2022/07/16 03:46:16;;;;;;;3.87;2.70;;;15.60;99.90;;;;;;5025459;28;20191;-70
2022/07/16 03:48:42;;;;;;;5.17;2.93;;;15.60;99.90;;;;;;5027882;28;20708;-70
2022/07/16 03:51:08;;;;;;;5.00;2.87;;;15.50;99.90;;;;;;5025194;28;20203;-71
2022/07/16 03:53:35;;;;;;;4.90;2.27;;;15.60;99.90;;;;;;5027294;28;20282;-70
2022/07/16 03:56:00;;;;;;;4.07;3.10;;;15.60;99.90;;;;;;5025225;28;20200;-69
2022/07/16 03:58:28;;;;;;;5.73;2.57;;;15.60;99.90;;;;;;5027242;28;20368;-70
2022/07/16 04:00:54;;;;;;;4.73;2.87;;;15.60;99.90;;;;;;5025055;28;20198;-70
2022/07/16 04:03:21;;;;;;;2.83;2.23;;;15.50;99.90;;;;;;5027374;28;20180;-71
2022/07/16 04:05:46;;;;;;;8.83;6.53;;;15.50;99.90;;;;;;5025026;28;20673;-70
2022/07/16 04:08:12;;;;;;;4.33;2.80;;;15.60;99.90;;;;;;5026616;28;20266;-71
2022/07/16 04:10:37;;;;;;;22.50;11.87;;;15.60;99.90;;;;;;5024832;28;20195;-71
2022/07/16 04:13:03;;;;;;;5.67;3.03;;;15.60;99.90;;;;;;5027141;28;20240;-71
2022/07/16 04:15:29;;;;;;;5.13;3.37;;;15.60;99.90;;;;;;5026035;28;20605;-71
2022/07/16 04:17:55;;;;;;;5.63;3.37;;;15.70;99.90;;;;;;5024906;28;20750;-71
2022/07/16 04:20:20;;;;;;;5.87;3.17;;;15.70;99.90;;;;;;5026527;28;20694;-70
2022/07/16 04:22:46;;;;;;;4.63;2.60;;;15.70;99.90;;;;;;5024717;28;20294;-71
2022/07/16 04:25:14;;;;;;;3.47;2.10;;;15.80;99.90;;;;;;5026262;28;20191;-69
2022/07/16 04:27:43;;;;;;;3.40;2.63;;;15.80;99.90;;;;;;5024731;28;20258;-69
2022/07/16 04:30:10;;;;;;;5.30;2.87;;;15.80;99.90;;;;;;5026493;28;20192;-69
2022/07/16 04:32:39;;;;;;;5.33;2.83;;;15.90;99.90;;;;;;5024579;28;20431;-72
2022/07/16 04:35:06;;;;;;;4.33;2.43;;;15.90;99.90;;;;;;5026458;28;20231;-69
2022/07/16 04:37:31;;;;;;;4.63;2.13;;;15.80;99.90;;;;;;5024369;28;20219;-69
2022/07/16 04:39:57;;;;;;;6.30;3.37;;;15.80;99.90;;;;;;5026817;28;20799;-69
2022/07/16 04:42:22;;;;;;;12.70;7.73;;;15.70;99.90;;;;;;5022556;28;20653;-70
2022/07/16 04:44:48;;;;;;;7.40;2.63;;;15.80;99.90;;;;;;5024913;28;20225;-70
2022/07/16 04:47:13;;;;;;;5.30;2.67;;;15.90;99.90;;;;;;5024109;28;20207;-70
2022/07/16 04:49:39;;;;;;;4.50;2.90;;;15.80;99.90;;;;;;5026402;28;20219;-71
2022/07/16 04:52:05;;;;;;;9.47;2.97;;;15.60;99.90;;;;;;5024792;28;20199;-71
2022/07/16 04:54:31;;;;;;;4.03;2.93;;;15.60;99.90;;;;;;5026601;28;20679;-71
2022/07/16 04:56:56;;;;;;;5.63;3.33;;;15.60;99.90;;;;;;5024225;28;20624;-71
2022/07/16 04:59:22;;;;;;;5.33;3.40;;;15.60;99.90;;;;;;5026504;28;20780;-71
2022/07/16 05:01:47;;;;;;;5.03;3.00;;;15.70;99.90;;;;;;5024242;28;20203;-71
2022/07/16 05:04:13;;;;;;;5.27;2.97;;;15.80;99.90;;;;;;5026598;28;20196;-71
2022/07/16 05:06:38;;;;;;;5.33;3.03;;;15.80;99.90;;;;;;5024055;28;20215;-71
2022/07/16 05:09:04;;;;;;;6.83;3.20;;;15.90;99.90;;;;;;5026536;28;20544;-70
2022/07/16 05:11:29;;;;;;;5.87;3.30;;;15.90;99.90;;;;;;5024311;28;20279;-71
2022/07/16 05:13:55;;;;;;;5.20;3.20;;;16.00;99.90;;;;;;5026107;28;20264;-71
2022/07/16 05:16:22;;;;;;;4.47;2.77;;;16.10;99.90;;;;;;5023944;28;20838;-71
2022/07/16 05:18:49;;;;;;;5.67;3.33;;;16.10;99.90;;;;;;5026408;28;20215;-70
2022/07/16 05:21:15;;;;;;;8.17;3.90;;;16.20;99.90;;;;;;5024426;28;20203;-70
2022/07/16 05:23:41;;;;;;;4.27;2.83;;;16.20;99.90;;;;;;5026338;28;20188;-71
2022/07/16 05:26:06;;;;;;;18.00;7.63;;;16.30;99.90;;;;;;5023798;28;20207;-70
2022/07/16 05:28:32;;;;;;;3.50;2.47;;;16.30;99.90;;;;;;5025766;28;20278;-70
2022/07/16 05:30:58;;;;;;;17.17;9.80;;;16.40;99.90;;;;;;5023640;28;20195;-71
2022/07/16 05:33:24;;;;;;;4.63;2.60;;;16.50;99.90;;;;;;5025523;28;20286;-70
2022/07/16 05:35:49;;;;;;;7.93;3.17;;;16.60;99.90;;;;;;5025204;28;20199;-70
2022/07/16 05:38:15;;;;;;;5.93;3.50;;;16.60;99.90;;;;;;5016987;28;20284;-70
2022/07/16 05:40:40;;;;;;;5.47;3.60;;;16.60;99.90;;;;;;5025122;28;20215;-70
2022/07/16 05:43:06;;;;;;;7.47;2.83;;;16.60;99.90;;;;;;5023583;28;20199;-71
2022/07/16 05:45:32;;;;;;;8.10;3.20;;;16.70;99.90;;;;;;5025055;28;20198;-72
2022/07/16 05:47:58;;;;;;;5.97;3.40;;;16.70;99.90;;;;;;5023438;28;20623;-70
2022/07/16 05:50:24;;;;;;;6.37;3.17;;;16.80;99.90;;;;;;5024971;28;20568;-71
2022/07/16 05:52:49;;;;;;;7.77;3.13;;;16.70;99.90;;;;;;5007289;28;20207;-70
2022/07/16 05:55:15;;;;;;;6.30;3.40;;;16.70;99.90;;;;;;5024739;28;20196;-71
2022/07/16 05:57:41;;;;;;;6.03;3.60;;;16.60;99.90;;;;;;5022616;28;20311;-70
2022/07/16 06:00:09;;;;;;;5.07;2.97;;;16.50;99.90;;;;;;5025207;28;20188;-73
2022/07/16 06:02:35;;;;;;;6.67;3.60;;;16.50;99.90;;;;;;5023131;28;20745;-71
2022/07/16 06:05:00;;;;;;;5.10;3.33;;;16.40;99.90;;;;;;5024949;28;20195;-70
2022/07/16 06:07:25;;;;;;;6.63;3.23;;;16.00;99.90;;;;;;5023049;28;20648;-69
2022/07/16 06:09:51;;;;;;;7.17;4.60;;;15.60;99.90;;;;;;5024629;28;20192;-69
2022/07/16 06:12:17;;;;;;;10.03;4.07;;;15.20;99.90;;;;;;5023368;28;20590;-70
2022/07/16 06:14:42;;;;;;;7.60;4.33;;;14.90;99.90;;;;;;5024732;28;20214;-68
2022/07/16 06:17:08;;;;;;;8.10;3.53;;;14.60;99.90;;;;;;5022364;28;20678;-67
2022/07/16 06:19:33;;;;;;;8.83;5.03;;;14.40;99.90;;;;;;5029531;28;20219;-69
2022/07/16 06:21:59;;;;;;;7.07;4.20;;;14.20;99.90;;;;;;5022845;28;20234;-69
2022/07/16 06:24:24;;;;;;;8.27;5.57;;;14.10;99.90;;;;;;5024896;28;20752;-69
2022/07/16 06:26:50;;;;;;;12.90;6.93;;;14.00;99.90;;;;;;5022686;28;20206;-69
2022/07/16 06:29:16;;;;;;;6.33;4.37;;;14.00;99.90;;;;;;5025018;28;20254;-69
2022/07/16 06:31:43;;;;;;;7.53;5.67;;;14.00;99.90;;;;;;5022638;28;20218;-70
2022/07/16 06:34:09;;;;;;;13.03;5.73;;;13.90;99.90;;;;;;5024915;28;20289;-69
2022/07/16 06:36:35;;;;;;;11.50;5.87;;;14.00;99.90;;;;;;5022937;28;21118;-69
2022/07/16 06:39:00;;;;;;;7.50;5.67;;;14.00;99.90;;;;;;5024467;28;20216;-70
2022/07/16 06:41:26;;;;;;;6.27;4.67;;;13.90;99.90;;;;;;5022855;28;20187;-69
2022/07/16 06:43:51;;;;;;;11.23;5.33;;;13.90;99.90;;;;;;5024521;28;20539;-68
2022/07/16 06:46:17;;;;;;;18.93;10.50;;;13.90;99.90;;;;;;5022837;28;20192;-70
2022/07/16 06:48:42;;;;;;;7.37;4.40;;;13.90;99.90;;;;;;5020648;28;20215;-69
2022/07/16 06:51:08;;;;;;;10.87;8.07;;;13.90;99.90;;;;;;5022185;28;20184;-69
2022/07/16 06:53:38;;;;;;;6.73;4.40;;;14.00;99.90;;;;;;5023759;28;20192;-70
2022/07/16 06:56:04;;;;;;;8.87;4.87;;;14.10;99.90;;;;;;5024553;28;20730;-69
2022/07/16 06:58:29;;;;;;;7.87;4.97;;;14.10;99.90;;;;;;5021971;28;20304;-70
2022/07/16 07:00:55;;;;;;;6.93;5.00;;;14.30;99.90;;;;;;5022572;28;20195;-72
2022/07/16 07:03:20;;;;;;;5.60;4.87;;;14.40;99.90;;;;;;5021139;28;20290;-70
2022/07/16 07:05:46;;;;;;;7.10;4.63;;;14.40;99.90;;;;;;5024555;28;20195;-70
2022/07/16 07:08:11;;;;;;;7.90;5.20;;;14.50;99.90;;;;;;5022847;28;20322;-72
2022/07/16 07:10:37;;;;;;;6.10;4.47;;;14.80;99.90;;;;;;5027856;28;20214;-72
2022/07/16 07:13:02;;;;;;;9.90;5.13;;;14.90;99.90;;;;;;5026178;28;20730;-72
2022/07/16 07:15:28;;;;;;;5.23;4.67;;;15.10;99.90;;;;;;5027439;28;20670;-72
2022/07/16 07:17:54;;;;;;;5.60;4.67;;;15.10;99.90;;;;;;5025787;28;20215;-71
2022/07/16 07:20:19;;;;;;;8.63;5.40;;;15.20;99.90;;;;;;5027463;28;20195;-73
2022/07/16 07:22:45;;;;;;;6.07;4.90;;;15.40;99.90;;;;;;5025800;28;20714;-72
2022/07/16 07:25:10;;;;;;;8.23;5.60;;;15.60;99.90;;;;;;5027606;28;20235;-70
2022/07/16 07:27:36;;;;;;;8.53;5.30;;;15.80;99.90;;;;;;5025984;28;20256;-69
2022/07/16 07:30:03;;;;;;;5.37;3.73;;;15.70;99.90;;;;;;5035336;28;20194;-70
2022/07/16 07:32:28;;;;;;;8.13;4.53;;;15.90;99.90;;;;;;5029636;28;20225;-71
2022/07/16 07:34:54;;;;;;;5.53;4.03;;;16.10;99.90;;;;;;5034204;28;20191;-70
2022/07/16 07:37:19;;;;;;;5.27;3.30;;;16.50;99.90;;;;;;5034549;28;20219;-73
2022/07/16 07:39:45;;;;;;;7.37;3.73;;;16.20;99.90;;;;;;5031339;28;20271;-70
2022/07/16 07:42:10;;;;;;;5.63;4.13;;;16.10;99.90;;;;;;5034569;28;20195;-70
2022/07/16 07:44:36;;;;;;;7.40;4.40;;;16.00;99.90;;;;;;5036248;28;20187;-71
2022/07/16 07:47:01;;;;;;;4.53;3.70;;;16.20;99.90;;;;;;5033829;28;20207;-78
2022/07/16 07:49:27;;;;;;;6.80;5.23;;;16.20;99.90;;;;;;5031778;28;20211;-75
2022/07/16 07:51:54;;;;;;;5.63;3.80;;;16.40;99.90;;;;;;5022510;28;20203;-76
2022/07/16 07:54:19;;;;;;;5.20;4.30;;;16.70;99.90;;;;;;5027065;28;20191;-74
2022/07/16 07:56:45;;;;;;;9.43;5.30;;;16.60;99.90;;;;;;5028755;28;20199;-77
2022/07/16 07:59:10;;;;;;;4.73;3.83;;;16.70;99.90;;;;;;5032209;28;20207;-76
2022/07/16 08:01:36;;;;;;;16.17;10.97;;;17.00;99.90;;;;;;5029587;28;20190;-77
2022/07/16 08:04:02;;;;;;;3.97;3.63;;;16.90;99.90;;;;;;5031589;28;20596;-69
2022/07/16 08:06:27;;;;;;;6.63;5.97;;;17.00;99.90;;;;;;5020379;28;20301;-69
2022/07/16 08:08:53;;;;;;;3.63;3.13;;;17.10;99.90;;;;;;5026496;28;20191;-71
2022/07/16 08:11:18;;;;;;;8.20;3.70;;;17.10;99.90;;;;;;5026024;28;20196;-70
2022/07/16 08:13:44;;;;;;;5.30;3.53;;;17.40;99.90;;;;;;5024416;28;20196;-72
2022/07/16 08:16:09;;;;;;;4.73;3.37;;;17.50;99.90;;;;;;5022928;28;20584;-71
2022/07/16 08:18:34;;;;;;;4.07;3.57;;;17.40;99.90;;;;;;5023704;28;20215;-71
2022/07/16 08:21:00;;;;;;;3.47;3.17;;;17.70;99.90;;;;;;5030982;28;20333;-70
2022/07/16 08:26:10;;;;;;;4.07;3.07;;;17.80;99.90;;;;;;5037290;28;20584;-70
2022/07/16 08:28:40;;;;;;;6.17;3.10;;;17.80;99.90;;;;;;5033293;28;20199;-79
2022/07/16 08:31:05;;;;;;;3.73;1.83;;;17.50;99.90;;;;;;5025206;28;20207;-75
2022/07/16 08:33:31;;;;;;;2.97;2.47;;;17.40;99.90;;;;;;5024987;28;20220;-76
2022/07/16 08:35:56;;;;;;;3.13;2.83;;;17.50;99.90;;;;;;5026309;28;20196;-79
2022/07/16 08:38:22;;;;;;;2.50;2.30;;;17.50;99.90;;;;;;5024630;28;20223;-73
2022/07/16 08:40:50;;;;;;;3.10;2.67;;;17.80;99.90;;;;;;5026229;28;20270;-77
2022/07/16 08:43:15;;;;;;;5.23;2.77;;;17.80;99.90;;;;;;5032393;28;20203;-70
2022/07/16 08:45:41;;;;;;;3.90;2.67;;;17.80;99.90;;;;;;5034909;28;20328;-72
2022/07/16 08:48:07;;;;;;;2.80;2.27;;;17.70;99.90;;;;;;5035216;28;20311;-72
2022/07/16 08:50:32;;;;;;;2.87;2.63;;;17.80;99.90;;;;;;5032135;28;20195;-73
2022/07/16 08:52:59;;;;;;;4.40;2.70;;;18.10;99.90;;;;;;5030558;28;20686;-72
2022/07/16 08:55:26;;;;;;;2.30;2.10;;;18.40;99.90;;;;;;5033072;28;20839;-72
2022/07/16 08:57:52;;;;;;;4.93;2.80;;;18.30;99.90;;;;;;5031852;28;20573;-72
2022/07/16 09:00:19;;;;;;;5.70;3.40;;;18.10;99.90;;;;;;5035793;28;20290;-75
2022/07/16 09:02:45;;;;;;;3.13;2.60;;;18.00;99.90;;;;;;5029867;28;20208;-71
2022/07/16 09:05:11;;;;;;;4.27;2.73;;;18.00;99.90;;;;;;5034032;28;20197;-72
2022/07/16 09:07:37;;;;;;;3.10;2.80;;;17.80;99.90;;;;;;5030730;28;20231;-73
2022/07/16 09:10:07;;;;;;;2.43;2.10;;;17.90;99.90;;;;;;5034550;28;20192;-75
2022/07/16 09:12:45;;;;;;;4.67;2.73;;;18.20;99.90;;;;;;5024885;28;20202;-73
2022/07/16 09:15:26;;;;;;;4.17;3.03;;;18.40;99.90;;;;;;5032508;28;20199;-73
2022/07/16 09:18:21;;;;;;;3.50;2.20;;;18.70;99.90;;;;;;5027426;28;20949;-73
2022/07/16 09:20:52;;;;;;;7.13;3.83;;;18.70;99.60;;;;;;5025805;28;20210;-73
2022/07/16 09:23:18;;;;;;;4.60;2.80;;;18.30;99.90;;;;;;5022930;28;20251;-72
2022/07/16 09:25:48;;;;;;;8.53;3.70;;;18.40;99.90;;;;;;5026160;28;20235;-77
2022/07/16 09:28:14;;;;;;;4.73;2.77;;;18.20;98.90;;;;;;5031167;28;20311;-77
2022/07/16 09:30:39;;;;;;;4.17;2.40;;;18.00;99.20;;;;;;5027178;28;20681;-81
2022/07/16 09:33:17;;;;;;;3.20;1.97;;;18.00;98.50;;;;;;5024260;28;20216;-77
2022/07/16 09:35:43;;;;;;;2.53;2.33;;;18.40;97.60;;;;;;5027366;28;20184;-75
2022/07/16 09:38:09;;;;;;;3.47;2.43;;;18.80;96.70;;;;;;5024826;28;20591;-75
2022/07/16 09:40:47;;;;;;;4.20;2.87;;;19.10;96.20;;;;;;5023452;28;20238;-75
2022/07/16 09:43:15;;;;;;;6.10;2.37;;;19.10;96.10;;;;;;5025941;28;20197;-75
2022/07/16 09:45:43;;;;;;;2.70;2.17;;;19.20;94.40;;;;;;5035846;28;20234;-75
2022/07/16 09:48:26;;;;;;;2.20;1.83;;;19.20;95.10;;;;;;5025285;28;20207;-73
2022/07/16 09:50:55;;;;;;;2.60;2.33;;;19.20;93.10;;;;;;5032726;28;20198;-74
2022/07/16 09:53:23;;;;;;;3.30;2.57;;;19.40;92.60;;;;;;5034021;28;20238;-76
2022/07/16 09:55:57;;;;;;;4.53;2.97;;;19.60;92.90;;;;;;5033044;28;20243;-74
2022/07/16 09:58:23;;;;;;;5.43;2.63;;;19.40;91.60;;;;;;5018953;28;20662;-75
2022/07/16 10:00:49;;;;;;;1.85;1.13;;;19.30;92.20;;;;;;5025883;28;20440;-79
2022/07/16 10:03:14;;;;;;;1.47;0.90;;;19.50;91.90;;;;;;5025036;28;20196;-77
2022/07/16 10:05:40;;;;;;;2.10;1.03;;;19.60;91.60;;;;;;5025884;28;20250;-81
2022/07/16 10:08:06;;;;;;;0.50;0.50;;;19.60;91.30;;;;;;5015903;28;20246;-80
2022/07/16 10:10:31;;;;;;;1.40;0.60;;;19.80;90.80;;;;;;5029253;28;20195;-83
2022/07/16 10:12:57;;;;;;;490.40;462.27;;;19.90;90.00;;;;;;5025314;28;20194;-76
2022/07/16 10:15:23;;;;;;;85.33;61.17;;;20.20;90.00;;;;;;5021180;28;20193;-78
2022/07/16 10:17:48;;;;;;;16.83;11.40;;;20.50;89.00;;;;;;5020775;28;20601;-78
2022/07/16 10:20:18;;;;;;;17.97;15.37;;;20.60;87.50;;;;;;5025147;28;20191;-76
2022/07/16 10:22:46;;;;;;;14.33;12.47;;;20.50;87.90;;;;;;5023931;28;20199;-85
2022/07/16 10:25:25;;;;;;;146.47;139.60;;;20.60;86.70;;;;;;5032828;28;20206;-87
2022/07/16 10:27:52;;;;;;;173.10;164.50;;;20.60;86.20;;;;;;5032889;28;20260;-86
2022/07/16 10:30:19;;;;;;;116.10;109.63;;;20.50;86.90;;;;;;5035262;28;20228;-79
2022/07/16 10:33:00;;;;;;;98.27;92.90;;;20.70;85.80;;;;;;5031123;28;20199;-85
2022/07/16 10:35:30;;;;;;;15.23;6.87;;;20.70;84.10;;;;;;5025742;28;20194;-78
2022/07/16 10:38:07;;;;;;;39.73;36.50;;;20.80;82.40;;;;;;5022714;28;20221;-74
2022/07/16 10:40:33;;;;;;;37.50;34.00;;;20.70;83.70;;;;;;5026384;28;20251;-77
2022/07/16 10:43:20;;;;;;;63.80;59.93;;;20.70;83.90;;;;;;5023038;28;20199;-76
2022/07/16 10:46:05;;;;;;;76.53;72.00;;;20.50;84.10;;;;;;5028931;28;20202;-77
2022/07/16 10:48:57;;;;;;;975.67;901.00;;;20.50;85.00;;;;;;5021598;28;20272;-75
2022/07/16 10:51:24;;;;;;;997.73;923.90;;;20.60;85.30;;;;;;5012952;28;20205;-77
2022/07/16 10:53:56;;;;;;;27.30;25.30;;;20.90;85.70;;;;;;5029462;28;20207;-85
2022/07/16 10:56:33;;;;;;;314.43;299.60;;;21.50;84.10;;;;;;5029573;28;20295;-81
2022/07/16 10:59:00;;;;;;;399.40;378.77;;;21.40;80.50;;;;;;5029536;28;20300;-75
2022/07/16 11:01:25;;;;;;;580.53;544.93;;;21.40;80.00;;;;;;5028281;28;20202;-77
2022/07/16 11:03:51;;;;;;;491.23;464.17;;;21.10;79.50;;;;;;5027257;28;20199;-80
2022/07/16 11:06:20;;;;;;;500.90;472.43;;;20.40;80.90;;;;;;5028202;28;20223;-77
2022/07/16 11:08:51;;;;;;;657.13;616.53;;;20.80;80.50;;;;;;5019690;28;20408;-79
2022/07/16 11:11:16;;;;;;;249.97;238.73;;;21.10;80.50;;;;;;5041045;28;20190;-84
2022/07/16 11:13:42;;;;;;;155.63;148.20;;;20.60;80.60;;;;;;5027567;28;20209;-79
2022/07/16 11:16:08;;;;;;;249.33;238.43;;;20.30;79.10;;;;;;5027429;28;20798;-75
2022/07/16 11:18:38;;;;;;;330.70;315.33;;;20.50;78.90;;;;;;5025732;28;20227;-77
2022/07/16 11:21:08;;;;;;;326.80;311.23;;;20.60;79.80;;;;;;5027990;28;20269;-78
2022/07/16 11:23:58;;;;;;;955.17;891.53;;;21.50;77.00;;;;;;5026246;28;20227;-74
2022/07/16 11:26:24;;;;;;;992.83;919.17;;;21.40;75.50;;;;;;5015214;28;20193;-76
2022/07/16 11:29:02;;;;;;;956.97;892.83;;;21.00;75.70;;;;;;5025893;28;20214;-74
2022/07/16 11:31:33;;;;;;;721.70;676.93;;;20.60;73.80;;;;;;5036849;28;20796;-73
2022/07/16 11:34:01;;;;;;;674.63;634.27;;;20.20;72.50;;;;;;5023812;28;20214;-77
2022/07/16 11:36:28;;;;;;;765.37;718.43;;;20.30;73.70;;;;;;5027590;28;20205;-70
2022/07/16 11:39:01;;;;;;;891.17;835.07;;;21.00;73.40;;;;;;5025878;28;20223;-72
2022/07/16 11:41:26;;;;;;;989.13;920.37;;;21.70;71.70;;;;;;5027731;28;20203;-71
2022/07/16 11:43:52;;;;;;;963.20;901.53;;;22.40;68.50;;;;;;5025760;28;20213;-70
2022/07/16 11:46:28;;;;;;;1011.73;943.13;;;23.10;63.90;;;;;;5028102;28;20198;-80
2022/07/16 11:48:54;;;;;;;1018.60;941.20;;;23.20;63.70;;;;;;5025578;28;20219;-70
2022/07/16 11:51:21;;;;;;;1026.27;954.37;;;23.60;62.30;;;;;;5027242;28;20728;-71
2022/07/16 11:53:51;;;;;;;1028.60;958.83;;;23.60;60.80;;;;;;5025585;28;20547;-71
2022/07/16 11:56:31;;;;;;;1050.67;974.77;;;22.80;56.90;;;;;;5026487;28;20210;-72
2022/07/16 11:58:57;;;;;;;1036.97;960.97;;;22.50;58.80;;;;;;5023925;28;20214;-70
2022/07/16 12:01:24;;;;;;;1036.87;958.03;;;21.60;58.40;;;;;;5025562;28;20408;-71
2022/07/16 12:03:56;;;;;;;912.27;855.60;;;21.80;59.20;;;;;;5020708;28;20193;-70
2022/07/16 12:06:22;;;;;;;1049.07;966.87;;;22.50;58.50;;;;;;5023381;28;20220;-71
2022/07/16 12:08:54;;;;;;;1050.47;970.13;;;23.50;57.20;;;;;;5022405;28;20199;-71
2022/07/16 12:11:27;;;;;;;1030.67;964.67;;;23.80;55.30;;;;;;5023974;28;20219;-71
2022/07/16 12:13:53;;;;;;;1061.00;977.00;;;23.70;55.20;;;;;;5019070;28;20196;-71
2022/07/16 12:16:20;;;;;;;1015.40;951.40;;;22.60;54.70;;;;;;5020772;28;20196;-72
2022/07/16 12:18:59;;;;;;;983.83;909.50;;;22.80;56.40;;;;;;5020509;28;20217;-72
2022/07/16 12:21:34;;;;;;;809.27;757.63;;;23.30;53.90;;;;;;5024417;28;20194;-72
2022/07/16 12:24:00;;;;;;;953.90;893.00;;;23.80;53.80;;;;;;5018979;28;20195;-71
2022/07/16 12:26:51;;;;;;;1076.97;998.13;;;24.30;52.30;;;;;;5018272;28;20223;-70
2022/07/16 12:29:17;;;;;;;1086.10;997.77;;;24.80;52.50;;;;;;5019313;28;20987;-70
2022/07/16 12:31:43;;;;;;;1081.60;999.00;;;25.00;52.00;;;;;;5019757;28;20192;-70
2022/07/16 12:34:09;;;;;;;1017.10;943.93;;;25.10;52.10;;;;;;5020714;28;20334;-70
2022/07/16 12:36:37;;;;;;;742.15;693.42;;;25.10;51.00;;;;;;5013531;28;20199;-71
2022/07/16 12:39:08;;;;;;;819.13;765.93;;;25.50;50.70;;;;;;5022297;28;20218;-70
2022/07/16 12:41:42;;;;;;;790.53;739.30;;;25.40;49.80;;;;;;5024578;28;20186;-71
2022/07/16 12:44:10;;;;;;;1082.63;999.23;;;25.30;49.00;;;;;;5024078;28;20800;-71